sensor_id;sensor_type;location;lat;lon;timestamp;temperature;humidity
37204;DHT22;23098;48.054;10.636;2023-02-18T00:01:25;10.70;99.90
37204;DHT22;23098;48.054;10.636;2023-02-18T00:03:51;10.70;99.90
37204;DHT22;23098;48.054;10.636;2023-02-18T00:06:19;10.60;99.90
37204;DHT22;23098;48.054;10.636;2023-02-18T00:08:46;10.60;99.90
37204;DHT22;23098;48.054;10.636;2023-02-18T00:11:12;10.50;99.90
37204;DHT22;23098;48.054;10.636;2023-02-18T00:13:38;10.50;99.90
37204;DHT22;23098;48.054;10.636;2023-02-18T00:16:06;10.50;99.90
37204;DHT22;23098;48.054;10.636;2023-02-18T00:18:32;10.50;99.90
37204;DHT22;23098;48.054;10.636;2023-02-18T00:20:58;10.50;99.90
37204;DHT22;23098;48.054;10.636;2023-02-18T00:23:24;10.50;99.90
37204;DHT22;23098;48.054;10.636;2023-02-18T00:26:01;10.50;99.90
37204;DHT22;23098;48.054;10.636;2023-02-18T00:28:26;10.50;99.90
37204;DHT22;23098;48.054;10.636;2023-02-18T00:30:52;10.40;99.90
37204;DHT22;23098;48.054;10.636;2023-02-18T00:33:18;10.40;99.90
37204;DHT22;23098;48.054;10.636;2023-02-18T00:35:43;10.40;99.90
37204;DHT22;23098;48.054;10.636;2023-02-18T00:38:09;10.40;99.90
37204;DHT22;23098;48.054;10.636;2023-02-18T00:40:38;10.30;99.90
37204;DHT22;23098;48.054;10.636;2023-02-18T00:43:04;10.30;99.90
37204;DHT22;23098;48.054;10.636;2023-02-18T00:45:30;10.20;99.90
37204;DHT22;23098;48.054;10.636;2023-02-18T00:47:55;10.20;99.90
37204;DHT22;23098;48.054;10.636;2023-02-18T00:50:21;10.20;99.90
37204;DHT22;23098;48.054;10.636;2023-02-18T00:52:46;10.10;99.90
37204;DHT22;23098;48.054;10.636;2023-02-18T00:55:12;10.10;99.90
37204;DHT22;23098;48.054;10.636;2023-02-18T00:57:37;10.00;99.90
37204;DHT22;23098;48.054;10.636;2023-02-18T01:00:04;10.00;99.90
37204;DHT22;23098;48.054;10.636;2023-02-18T01:02:30;10.00;99.90
37204;DHT22;23098;48.054;10.636;2023-02-18T01:04:56;10.00;99.90
37204;DHT22;23098;48.054;10.636;2023-02-18T01:07:21;9.90;99.90
37204;DHT22;23098;48.054;10.636;2023-02-18T01:09:47;10.00;99.90
37204;DHT22;23098;48.054;10.636;2023-02-18T01:12:13;10.00;99.90
37204;DHT22;23098;48.054;10.636;2023-02-18T01:14:38;10.00;99.90
37204;DHT22;23098;48.054;10.636;2023-02-18T01:17:04;10.00;99.90
37204;DHT22;23098;48.054;10.636;2023-02-18T01:19:29;10.00;99.90
37204;DHT22;23098;48.054;10.636;2023-02-18T01:21:55;10.00;99.90
37204;DHT22;23098;48.054;10.636;2023-02-18T01:24:20;9.90;99.90
37204;DHT22;23098;48.054;10.636;2023-02-18T01:26:46;9.90;99.90
37204;DHT22;23098;48.054;10.636;2023-02-18T01:29:11;10.00;99.90
37204;DHT22;23098;48.054;10.636;2023-02-18T01:31:37;9.90;99.90
37204;DHT22;23098;48.054;10.636;2023-02-18T01:34:02;9.90;99.90
37204;DHT22;23098;48.054;10.636;2023-02-18T01:36:28;9.80;99.90
37204;DHT22;23098;48.054;10.636;2023-02-18T01:38:53;9.80;99.90
37204;DHT22;23098;48.054;10.636;2023-02-18T01:41:19;9.80;99.90
37204;DHT22;23098;48.054;10.636;2023-02-18T01:43:45;9.70;99.90
37204;DHT22;23098;48.054;10.636;2023-02-18T01:46:16;9.80;99.90
37204;DHT22;23098;48.054;10.636;2023-02-18T01:48:49;9.80;99.90
37204;DHT22;23098;48.054;10.636;2023-02-18T01:51:21;9.80;99.90
37204;DHT22;23098;48.054;10.636;2023-02-18T01:54:30;9.80;99.90
37204;DHT22;23098;48.054;10.636;2023-02-18T01:56:38;9.80;99.90
37204;DHT22;23098;48.054;10.636;2023-02-18T01:59:10;9.80;99.90
37204;DHT22;23098;48.054;10.636;2023-02-18T02:01:38;9.90;99.90
37204;DHT22;23098;48.054;10.636;2023-02-18T02:04:05;9.90;99.90
37204;DHT22;23098;48.054;10.636;2023-02-18T02:06:31;9.90;99.90
37204;DHT22;23098;48.054;10.636;2023-02-18T02:08:59;9.90;99.90
37204;DHT22;23098;48.054;10.636;2023-02-18T02:11:47;9.90;99.90
37204;DHT22;23098;48.054;10.636;2023-02-18T02:14:22;9.80;99.90
37204;DHT22;23098;48.054;10.636;2023-02-18T02:16:56;9.70;99.90
37204;DHT22;23098;48.054;10.636;2023-02-18T02:19:41;9.70;99.90
37204;DHT22;23098;48.054;10.636;2023-02-18T02:22:53;9.70;99.90
37204;DHT22;23098;48.054;10.636;2023-02-18T02:37:07;9.70;99.90
37204;DHT22;23098;48.054;10.636;2023-02-18T02:39:59;9.60;99.90
37204;DHT22;23098;48.054;10.636;2023-02-18T02:42:42;9.60;99.90
37204;DHT22;23098;48.054;10.636;2023-02-18T02:45:21;9.60;99.90
37204;DHT22;23098;48.054;10.636;2023-02-18T02:47:54;9.70;99.90
37204;DHT22;23098;48.054;10.636;2023-02-18T02:50:37;9.70;99.90
37204;DHT22;23098;48.054;10.636;2023-02-18T02:53:12;9.70;99.90
37204;DHT22;23098;48.054;10.636;2023-02-18T02:55:39;9.70;99.90
37204;DHT22;23098;48.054;10.636;2023-02-18T02:58:04;9.80;99.90
37204;DHT22;23098;48.054;10.636;2023-02-18T03:01:04;9.80;99.90
37204;DHT22;23098;48.054;10.636;2023-02-18T03:04:02;9.70;99.90
37204;DHT22;23098;48.054;10.636;2023-02-18T03:07:02;9.80;99.90
37204;DHT22;23098;48.054;10.636;2023-02-18T03:15:28;9.90;99.90
37204;DHT22;23098;48.054;10.636;2023-02-18T03:18:05;9.90;99.90
37204;DHT22;23098;48.054;10.636;2023-02-18T03:20:38;9.90;99.90
37204;DHT22;23098;48.054;10.636;2023-02-18T03:23:10;10.00;99.90
37204;DHT22;23098;48.054;10.636;2023-02-18T03:25:39;10.00;99.90
37204;DHT22;23098;48.054;10.636;2023-02-18T03:28:12;9.90;99.90
37204;DHT22;23098;48.054;10.636;2023-02-18T03:30:47;9.90;99.90
37204;DHT22;23098;48.054;10.636;2023-02-18T03:33:16;9.90;99.90
37204;DHT22;23098;48.054;10.636;2023-02-18T03:35:43;10.00;99.90
37204;DHT22;23098;48.054;10.636;2023-02-18T03:40:43;10.00;99.90
37204;DHT22;23098;48.054;10.636;2023-02-18T03:43:09;9.90;99.90
37204;DHT22;23098;48.054;10.636;2023-02-18T03:45:35;10.00;99.90
37204;DHT22;23098;48.054;10.636;2023-02-18T03:48:00;9.90;99.90
37204;DHT22;23098;48.054;10.636;2023-02-18T03:50:26;9.90;99.90
37204;DHT22;23098;48.054;10.636;2023-02-18T03:52:52;9.90;99.90
37204;DHT22;23098;48.054;10.636;2023-02-18T03:55:17;10.00;99.90
37204;DHT22;23098;48.054;10.636;2023-02-18T03:57:43;9.90;99.90
37204;DHT22;23098;48.054;10.636;2023-02-18T04:00:09;9.90;99.90
37204;DHT22;23098;48.054;10.636;2023-02-18T04:02:35;9.90;99.90
37204;DHT22;23098;48.054;10.636;2023-02-18T04:05:01;9.90;99.90
37204;DHT22;23098;48.054;10.636;2023-02-18T04:07:27;9.90;99.90
37204;DHT22;23098;48.054;10.636;2023-02-18T04:09:52;9.90;99.90
37204;DHT22;23098;48.054;10.636;2023-02-18T04:12:18;9.90;99.90
37204;DHT22;23098;48.054;10.636;2023-02-18T04:14:43;9.90;99.90
37204;DHT22;23098;48.054;10.636;2023-02-18T04:17:09;9.90;99.90
37204;DHT22;23098;48.054;10.636;2023-02-18T04:19:34;9.90;99.90
37204;DHT22;23098;48.054;10.636;2023-02-18T04:22:00;9.90;99.90
37204;DHT22;23098;48.054;10.636;2023-02-18T04:24:26;9.90;99.90
37204;DHT22;23098;48.054;10.636;2023-02-18T04:26:51;9.90;99.90
37204;DHT22;23098;48.054;10.636;2023-02-18T04:29:17;9.90;99.90
37204;DHT22;23098;48.054;10.636;2023-02-18T04:31:42;9.90;99.90
37204;DHT22;23098;48.054;10.636;2023-02-18T04:34:08;9.90;99.90
37204;DHT22;23098;48.054;10.636;2023-02-18T04:36:33;10.00;99.90
37204;DHT22;23098;48.054;10.636;2023-02-18T04:38:59;10.00;99.90
37204;DHT22;23098;48.054;10.636;2023-02-18T04:41:25;10.00;99.90
37204;DHT22;23098;48.054;10.636;2023-02-18T04:43:51;10.10;99.90
37204;DHT22;23098;48.054;10.636;2023-02-18T04:46:16;10.10;99.90
37204;DHT22;23098;48.054;10.636;2023-02-18T04:48:42;10.10;99.90
37204;DHT22;23098;48.054;10.636;2023-02-18T04:51:08;10.00;99.90
37204;DHT22;23098;48.054;10.636;2023-02-18T04:53:33;10.10;99.90
37204;DHT22;23098;48.054;10.636;2023-02-18T04:55:59;10.10;99.90
37204;DHT22;23098;48.054;10.636;2023-02-18T04:58:24;10.10;99.90
37204;DHT22;23098;48.054;10.636;2023-02-18T05:00:50;10.00;99.90
37204;DHT22;23098;48.054;10.636;2023-02-18T05:03:17;10.00;99.90
37204;DHT22;23098;48.054;10.636;2023-02-18T05:05:43;10.10;99.90
37204;DHT22;23098;48.054;10.636;2023-02-18T05:08:08;10.10;99.90
37204;DHT22;23098;48.054;10.636;2023-02-18T05:10:34;10.10;99.90
37204;DHT22;23098;48.054;10.636;2023-02-18T05:12:59;10.10;99.90
37204;DHT22;23098;48.054;10.636;2023-02-18T05:15:25;10.10;99.90
37204;DHT22;23098;48.054;10.636;2023-02-18T05:17:51;10.10;99.90
37204;DHT22;23098;48.054;10.636;2023-02-18T05:20:16;10.10;99.90
37204;DHT22;23098;48.054;10.636;2023-02-18T05:22:42;10.10;99.90
37204;DHT22;23098;48.054;10.636;2023-02-18T05:25:08;10.00;99.90
37204;DHT22;23098;48.054;10.636;2023-02-18T05:27:33;10.00;99.90
37204;DHT22;23098;48.054;10.636;2023-02-18T05:29:59;10.00;99.90
37204;DHT22;23098;48.054;10.636;2023-02-18T05:32:24;10.00;99.90
37204;DHT22;23098;48.054;10.636;2023-02-18T05:34:50;10.00;99.90
37204;DHT22;23098;48.054;10.636;2023-02-18T05:37:15;10.00;99.90
37204;DHT22;23098;48.054;10.636;2023-02-18T05:39:43;10.00;99.90
37204;DHT22;23098;48.054;10.636;2023-02-18T05:42:08;10.00;99.90
37204;DHT22;23098;48.054;10.636;2023-02-18T05:44:34;10.00;99.90
37204;DHT22;23098;48.054;10.636;2023-02-18T05:47:02;10.00;99.90
37204;DHT22;23098;48.054;10.636;2023-02-18T05:49:29;10.00;99.90
37204;DHT22;23098;48.054;10.636;2023-02-18T05:51:55;10.00;99.90
37204;DHT22;23098;48.054;10.636;2023-02-18T05:54:20;10.00;99.90
37204;DHT22;23098;48.054;10.636;2023-02-18T05:56:46;10.00;99.90
37204;DHT22;23098;48.054;10.636;2023-02-18T05:59:13;10.00;99.90
37204;DHT22;23098;48.054;10.636;2023-02-18T06:01:38;10.00;99.90
37204;DHT22;23098;48.054;10.636;2023-02-18T06:04:04;10.10;99.90
37204;DHT22;23098;48.054;10.636;2023-02-18T06:06:30;10.00;99.90
37204;DHT22;23098;48.054;10.636;2023-02-18T06:08:55;10.00;99.90
37204;DHT22;23098;48.054;10.636;2023-02-18T06:11:21;10.00;99.90
37204;DHT22;23098;48.054;10.636;2023-02-18T06:13:47;9.90;99.90
37204;DHT22;23098;48.054;10.636;2023-02-18T06:16:12;9.90;99.90
37204;DHT22;23098;48.054;10.636;2023-02-18T06:18:38;10.00;99.90
37204;DHT22;23098;48.054;10.636;2023-02-18T06:21:04;9.90;99.90
37204;DHT22;23098;48.054;10.636;2023-02-18T06:23:29;10.00;99.90
37204;DHT22;23098;48.054;10.636;2023-02-18T06:25:55;9.90;99.90
37204;DHT22;23098;48.054;10.636;2023-02-18T06:28:20;10.00;99.90
37204;DHT22;23098;48.054;10.636;2023-02-18T06:30:46;9.90;99.90
37204;DHT22;23098;48.054;10.636;2023-02-18T06:33:12;9.90;99.90
37204;DHT22;23098;48.054;10.636;2023-02-18T06:35:38;9.90;99.90
37204;DHT22;23098;48.054;10.636;2023-02-18T06:38:03;9.90;99.90
37204;DHT22;23098;48.054;10.636;2023-02-18T06:40:29;10.00;99.90
37204;DHT22;23098;48.054;10.636;2023-02-18T06:42:55;10.00;99.90
37204;DHT22;23098;48.054;10.636;2023-02-18T06:45:20;9.90;99.90
37204;DHT22;23098;48.054;10.636;2023-02-18T06:47:46;10.00;99.90
37204;DHT22;23098;48.054;10.636;2023-02-18T06:50:11;10.00;99.90
37204;DHT22;23098;48.054;10.636;2023-02-18T06:52:37;9.90;99.90
37204;DHT22;23098;48.054;10.636;2023-02-18T06:55:07;9.90;99.90
37204;DHT22;23098;48.054;10.636;2023-02-18T06:57:34;9.90;99.90
37204;DHT22;23098;48.054;10.636;2023-02-18T06:59:59;9.90;99.90
37204;DHT22;23098;48.054;10.636;2023-02-18T07:02:26;9.90;99.90
37204;DHT22;23098;48.054;10.636;2023-02-18T07:04:51;9.90;99.90
37204;DHT22;23098;48.054;10.636;2023-02-18T07:07:17;9.90;99.90
37204;DHT22;23098;48.054;10.636;2023-02-18T07:09:42;9.90;99.90
37204;DHT22;23098;48.054;10.636;2023-02-18T07:12:08;9.90;99.90
37204;DHT22;23098;48.054;10.636;2023-02-18T07:14:34;10.00;99.90
37204;DHT22;23098;48.054;10.636;2023-02-18T07:16:59;10.00;99.90
37204;DHT22;23098;48.054;10.636;2023-02-18T07:19:25;10.00;99.90
37204;DHT22;23098;48.054;10.636;2023-02-18T07:21:50;10.00;99.90
37204;DHT22;23098;48.054;10.636;2023-02-18T07:24:16;10.00;99.90
37204;DHT22;23098;48.054;10.636;2023-02-18T07:26:41;10.10;99.90
37204;DHT22;23098;48.054;10.636;2023-02-18T07:29:07;10.00;99.90
37204;DHT22;23098;48.054;10.636;2023-02-18T07:31:32;10.00;99.90
37204;DHT22;23098;48.054;10.636;2023-02-18T07:33:58;10.00;99.90
37204;DHT22;23098;48.054;10.636;2023-02-18T07:36:24;10.10;99.90
37204;DHT22;23098;48.054;10.636;2023-02-18T07:38:49;10.20;99.90
37204;DHT22;23098;48.054;10.636;2023-02-18T07:41:20;10.10;99.90
37204;DHT22;23098;48.054;10.636;2023-02-18T07:43:46;10.20;99.90
37204;DHT22;23098;48.054;10.636;2023-02-18T07:46:12;10.20;99.90
37204;DHT22;23098;48.054;10.636;2023-02-18T07:48:37;10.20;99.90
37204;DHT22;23098;48.054;10.636;2023-02-18T07:51:08;10.20;99.90
37204;DHT22;23098;48.054;10.636;2023-02-18T07:53:34;10.20;99.90
37204;DHT22;23098;48.054;10.636;2023-02-18T07:56:00;10.30;99.90
37204;DHT22;23098;48.054;10.636;2023-02-18T07:58:28;10.30;99.90
37204;DHT22;23098;48.054;10.636;2023-02-18T08:00:54;10.30;99.90
37204;DHT22;23098;48.054;10.636;2023-02-18T08:03:22;10.30;99.90
37204;DHT22;23098;48.054;10.636;2023-02-18T08:05:48;10.30;99.90
37204;DHT22;23098;48.054;10.636;2023-02-18T08:08:16;10.40;99.90
37204;DHT22;23098;48.054;10.636;2023-02-18T08:10:42;10.40;99.90
37204;DHT22;23098;48.054;10.636;2023-02-18T08:13:08;10.40;99.90
37204;DHT22;23098;48.054;10.636;2023-02-18T08:15:34;10.40;99.90
37204;DHT22;23098;48.054;10.636;2023-02-18T08:17:59;10.50;99.90
37204;DHT22;23098;48.054;10.636;2023-02-18T08:20:27;10.50;99.90
37204;DHT22;23098;48.054;10.636;2023-02-18T08:22:53;10.60;99.90
37204;DHT22;23098;48.054;10.636;2023-02-18T08:25:19;10.60;99.90
37204;DHT22;23098;48.054;10.636;2023-02-18T08:27:44;10.60;99.90
37204;DHT22;23098;48.054;10.636;2023-02-18T08:30:10;10.60;99.90
37204;DHT22;23098;48.054;10.636;2023-02-18T08:32:36;10.60;99.90
37204;DHT22;23098;48.054;10.636;2023-02-18T08:35:02;10.60;99.90
37204;DHT22;23098;48.054;10.636;2023-02-18T08:37:28;10.70;99.90
37204;DHT22;23098;48.054;10.636;2023-02-18T08:39:54;10.70;99.90
37204;DHT22;23098;48.054;10.636;2023-02-18T08:42:19;10.60;99.90
37204;DHT22;23098;48.054;10.636;2023-02-18T08:44:45;10.70;99.90
37204;DHT22;23098;48.054;10.636;2023-02-18T08:47:11;10.70;99.90
37204;DHT22;23098;48.054;10.636;2023-02-18T08:49:36;10.80;99.90
37204;DHT22;23098;48.054;10.636;2023-02-18T08:52:05;10.80;99.90
37204;DHT22;23098;48.054;10.636;2023-02-18T08:54:31;10.80;99.90
37204;DHT22;23098;48.054;10.636;2023-02-18T08:56:56;10.70;99.90
37204;DHT22;23098;48.054;10.636;2023-02-18T08:59:23;10.80;99.90
37204;DHT22;23098;48.054;10.636;2023-02-18T09:01:48;10.80;99.90
37204;DHT22;23098;48.054;10.636;2023-02-18T09:04:14;10.80;99.90
37204;DHT22;23098;48.054;10.636;2023-02-18T09:06:40;10.80;99.90
37204;DHT22;23098;48.054;10.636;2023-02-18T09:09:05;10.80;99.90
37204;DHT22;23098;48.054;10.636;2023-02-18T09:11:31;10.70;99.90
37204;DHT22;23098;48.054;10.636;2023-02-18T09:13:56;10.70;99.90
37204;DHT22;23098;48.054;10.636;2023-02-18T09:16:22;10.70;99.90
37204;DHT22;23098;48.054;10.636;2023-02-18T09:18:48;10.80;99.90
37204;DHT22;23098;48.054;10.636;2023-02-18T09:21:16;10.80;99.90
37204;DHT22;23098;48.054;10.636;2023-02-18T09:23:45;10.80;99.90
37204;DHT22;23098;48.054;10.636;2023-02-18T09:26:13;10.80;99.90
37204;DHT22;23098;48.054;10.636;2023-02-18T09:28:39;10.90;99.90
37204;DHT22;23098;48.054;10.636;2023-02-18T09:31:06;10.90;99.90
37204;DHT22;23098;48.054;10.636;2023-02-18T09:33:40;10.90;99.90
37204;DHT22;23098;48.054;10.636;2023-02-18T09:36:07;10.90;99.90
37204;DHT22;23098;48.054;10.636;2023-02-18T09:38:33;11.00;99.90
37204;DHT22;23098;48.054;10.636;2023-02-18T09:41:00;11.20;99.90
37204;DHT22;23098;48.054;10.636;2023-02-18T09:43:34;11.30;99.90
37204;DHT22;23098;48.054;10.636;2023-02-18T09:46:01;11.40;99.90
37204;DHT22;23098;48.054;10.636;2023-02-18T09:48:32;11.30;99.90
37204;DHT22;23098;48.054;10.636;2023-02-18T09:50:58;11.50;99.90
37204;DHT22;23098;48.054;10.636;2023-02-18T09:53:26;11.70;99.90
37204;DHT22;23098;48.054;10.636;2023-02-18T09:55:54;11.80;99.90
37204;DHT22;23098;48.054;10.636;2023-02-18T09:58:31;11.90;99.90
37204;DHT22;23098;48.054;10.636;2023-02-18T10:01:09;12.00;99.90
37204;DHT22;23098;48.054;10.636;2023-02-18T10:03:35;12.00;99.90
37204;DHT22;23098;48.054;10.636;2023-02-18T10:08:35;11.90;99.90
37204;DHT22;23098;48.054;10.636;2023-02-18T10:11:02;11.80;99.90
37204;DHT22;23098;48.054;10.636;2023-02-18T10:13:31;11.70;99.90
37204;DHT22;23098;48.054;10.636;2023-02-18T10:15:57;11.80;99.90
37204;DHT22;23098;48.054;10.636;2023-02-18T10:18:31;12.00;99.90
37204;DHT22;23098;48.054;10.636;2023-02-18T10:21:19;12.00;99.90
37204;DHT22;23098;48.054;10.636;2023-02-18T10:24:13;11.90;99.90
37204;DHT22;23098;48.054;10.636;2023-02-18T10:26:43;12.00;99.90
37204;DHT22;23098;48.054;10.636;2023-02-18T10:29:17;12.00;99.90
37204;DHT22;23098;48.054;10.636;2023-02-18T10:31:47;12.20;99.90
37204;DHT22;23098;48.054;10.636;2023-02-18T10:34:38;12.30;99.90
37204;DHT22;23098;48.054;10.636;2023-02-18T10:40:48;12.20;99.90
37204;DHT22;23098;48.054;10.636;2023-02-18T10:43:33;12.30;99.90
37204;DHT22;23098;48.054;10.636;2023-02-18T10:51:23;12.30;99.90
37204;DHT22;23098;48.054;10.636;2023-02-18T10:53:52;12.60;99.90
37204;DHT22;23098;48.054;10.636;2023-02-18T10:59:05;13.10;99.90
37204;DHT22;23098;48.054;10.636;2023-02-18T11:01:33;12.90;99.90
37204;DHT22;23098;48.054;10.636;2023-02-18T11:04:14;12.80;99.90
37204;DHT22;23098;48.054;10.636;2023-02-18T11:06:52;12.90;99.90
37204;DHT22;23098;48.054;10.636;2023-02-18T11:09:39;12.80;99.90
37204;DHT22;23098;48.054;10.636;2023-02-18T11:12:43;13.00;99.90
37204;DHT22;23098;48.054;10.636;2023-02-18T11:17:38;13.30;99.90
37204;DHT22;23098;48.054;10.636;2023-02-18T11:22:42;13.40;99.90
37204;DHT22;23098;48.054;10.636;2023-02-18T11:25:23;13.40;99.90
37204;DHT22;23098;48.054;10.636;2023-02-18T11:27:54;13.10;99.90
37204;DHT22;23098;48.054;10.636;2023-02-18T11:30:32;13.00;99.90
37204;DHT22;23098;48.054;10.636;2023-02-18T11:33:06;13.10;99.90
37204;DHT22;23098;48.054;10.636;2023-02-18T11:35:33;13.10;99.90
37204;DHT22;23098;48.054;10.636;2023-02-18T11:38:02;13.00;99.90
37204;DHT22;23098;48.054;10.636;2023-02-18T11:40:33;13.20;99.90
37204;DHT22;23098;48.054;10.636;2023-02-18T11:43:18;13.30;99.90
37204;DHT22;23098;48.054;10.636;2023-02-18T11:45:44;13.20;99.90
37204;DHT22;23098;48.054;10.636;2023-02-18T11:48:17;13.30;99.90
37204;DHT22;23098;48.054;10.636;2023-02-18T11:50:43;13.50;99.90
37204;DHT22;23098;48.054;10.636;2023-02-18T11:53:32;13.40;99.90
37204;DHT22;23098;48.054;10.636;2023-02-18T11:56:20;13.50;99.90
37204;DHT22;23098;48.054;10.636;2023-02-18T11:58:47;13.80;99.90
37204;DHT22;23098;48.054;10.636;2023-02-18T12:01:45;13.90;99.90
37204;DHT22;23098;48.054;10.636;2023-02-18T12:04:29;13.90;99.90
37204;DHT22;23098;48.054;10.636;2023-02-18T12:09:54;13.90;99.90
37204;DHT22;23098;48.054;10.636;2023-02-18T12:12:29;14.40;99.90
37204;DHT22;23098;48.054;10.636;2023-02-18T12:14:56;14.20;99.90
37204;DHT22;23098;48.054;10.636;2023-02-18T12:17:38;14.20;99.90
37204;DHT22;23098;48.054;10.636;2023-02-18T12:20:36;14.00;99.90
37204;DHT22;23098;48.054;10.636;2023-02-18T12:23:42;14.30;99.90
37204;DHT22;23098;48.054;10.636;2023-02-18T12:26:34;14.30;99.90
37204;DHT22;23098;48.054;10.636;2023-02-18T12:29:17;14.20;99.90
37204;DHT22;23098;48.054;10.636;2023-02-18T12:35:08;13.60;99.90
37204;DHT22;23098;48.054;10.636;2023-02-18T12:43:21;13.50;99.90
37204;DHT22;23098;48.054;10.636;2023-02-18T12:46:23;13.40;99.90
37204;DHT22;23098;48.054;10.636;2023-02-18T12:49:23;13.80;99.90
37204;DHT22;23098;48.054;10.636;2023-02-18T12:52:13;13.80;99.90
37204;DHT22;23098;48.054;10.636;2023-02-18T13:00:53;13.50;99.90
37204;DHT22;23098;48.054;10.636;2023-02-18T13:06:02;13.30;99.90
37204;DHT22;23098;48.054;10.636;2023-02-18T13:08:50;13.30;99.90
37204;DHT22;23098;48.054;10.636;2023-02-18T13:12:04;13.50;99.90
37204;DHT22;23098;48.054;10.636;2023-02-18T13:14:33;13.50;99.90
37204;DHT22;23098;48.054;10.636;2023-02-18T13:17:02;13.40;99.90
37204;DHT22;23098;48.054;10.636;2023-02-18T13:19:44;13.20;99.90
37204;DHT22;23098;48.054;10.636;2023-02-18T13:22:14;13.20;99.90
37204;DHT22;23098;48.054;10.636;2023-02-18T13:24:46;13.30;99.90
37204;DHT22;23098;48.054;10.636;2023-02-18T13:30:44;13.50;99.90
37204;DHT22;23098;48.054;10.636;2023-02-18T13:33:33;13.50;99.90
37204;DHT22;23098;48.054;10.636;2023-02-18T13:41:34;13.50;99.90
37204;DHT22;23098;48.054;10.636;2023-02-18T13:44:00;13.30;99.90
37204;DHT22;23098;48.054;10.636;2023-02-18T13:46:25;13.10;99.90
37204;DHT22;23098;48.054;10.636;2023-02-18T13:51:46;13.50;99.90
37204;DHT22;23098;48.054;10.636;2023-02-18T13:57:00;13.30;99.90
37204;DHT22;23098;48.054;10.636;2023-02-18T13:59:29;13.50;99.90
37204;DHT22;23098;48.054;10.636;2023-02-18T14:02:34;13.50;99.90
37204;DHT22;23098;48.054;10.636;2023-02-18T14:12:42;13.20;99.90
37204;DHT22;23098;48.054;10.636;2023-02-18T14:25:53;13.10;99.90
37204;DHT22;23098;48.054;10.636;2023-02-18T14:42:45;13.60;99.90
37204;DHT22;23098;48.054;10.636;2023-02-18T14:50:22;13.40;99.50
37204;DHT22;23098;48.054;10.636;2023-02-18T14:52:51;13.50;99.40
37204;DHT22;23098;48.054;10.636;2023-02-18T14:55:29;13.50;99.20
37204;DHT22;23098;48.054;10.636;2023-02-18T14:58:00;13.40;99.10
37204;DHT22;23098;48.054;10.636;2023-02-18T15:00:28;13.30;99.40
37204;DHT22;23098;48.054;10.636;2023-02-18T15:02:57;13.20;99.30
37204;DHT22;23098;48.054;10.636;2023-02-18T15:05:35;13.00;99.70
37204;DHT22;23098;48.054;10.636;2023-02-18T15:08:19;12.80;99.90
37204;DHT22;23098;48.054;10.636;2023-02-18T15:11:03;12.80;99.90
37204;DHT22;23098;48.054;10.636;2023-02-18T15:13:41;12.80;99.90
37204;DHT22;23098;48.054;10.636;2023-02-18T15:18:55;12.60;99.90
37204;DHT22;23098;48.054;10.636;2023-02-18T15:24:00;12.50;99.90
37204;DHT22;23098;48.054;10.636;2023-02-18T15:26:29;12.50;99.90
37204;DHT22;23098;48.054;10.636;2023-02-18T15:28:59;12.40;99.90
37204;DHT22;23098;48.054;10.636;2023-02-18T15:31:27;12.30;99.90
37204;DHT22;23098;48.054;10.636;2023-02-18T15:33:53;12.30;99.90
37204;DHT22;23098;48.054;10.636;2023-02-18T15:36:19;12.30;99.90
37204;DHT22;23098;48.054;10.636;2023-02-18T15:38:45;12.20;99.90
37204;DHT22;23098;48.054;10.636;2023-02-18T15:41:14;12.20;99.90
37204;DHT22;23098;48.054;10.636;2023-02-18T15:43:59;12.10;99.90
37204;DHT22;23098;48.054;10.636;2023-02-18T15:46:26;12.10;99.90
37204;DHT22;23098;48.054;10.636;2023-02-18T15:48:53;12.00;99.90
37204;DHT22;23098;48.054;10.636;2023-02-18T15:51:22;12.00;99.90
37204;DHT22;23098;48.054;10.636;2023-02-18T15:53:53;12.00;99.90
37204;DHT22;23098;48.054;10.636;2023-02-18T15:56:41;11.90;99.90
37204;DHT22;23098;48.054;10.636;2023-02-18T15:59:19;11.90;99.90
37204;DHT22;23098;48.054;10.636;2023-02-18T16:01:54;11.80;99.90
37204;DHT22;23098;48.054;10.636;2023-02-18T16:04:22;11.80;99.90
37204;DHT22;23098;48.054;10.636;2023-02-18T16:06:50;11.80;99.90
37204;DHT22;23098;48.054;10.636;2023-02-18T16:09:25;11.70;99.90
37204;DHT22;23098;48.054;10.636;2023-02-18T16:11:54;11.70;99.90
37204;DHT22;23098;48.054;10.636;2023-02-18T16:17:07;11.70;99.90
37204;DHT22;23098;48.054;10.636;2023-02-18T16:19:33;11.60;99.90
37204;DHT22;23098;48.054;10.636;2023-02-18T16:22:04;11.60;99.90
37204;DHT22;23098;48.054;10.636;2023-02-18T16:24:39;11.60;99.90
37204;DHT22;23098;48.054;10.636;2023-02-18T16:27:05;11.50;99.90
37204;DHT22;23098;48.054;10.636;2023-02-18T16:29:39;11.40;99.90
37204;DHT22;23098;48.054;10.636;2023-02-18T16:32:06;11.40;99.90
37204;DHT22;23098;48.054;10.636;2023-02-18T16:34:32;11.30;99.90
37204;DHT22;23098;48.054;10.636;2023-02-18T16:36:57;11.30;99.90
37204;DHT22;23098;48.054;10.636;2023-02-18T16:39:42;11.30;99.90
37204;DHT22;23098;48.054;10.636;2023-02-18T16:42:09;11.30;99.90
37204;DHT22;23098;48.054;10.636;2023-02-18T16:44:35;11.30;99.90
37204;DHT22;23098;48.054;10.636;2023-02-18T16:47:01;11.20;99.90
37204;DHT22;23098;48.054;10.636;2023-02-18T16:49:27;11.30;99.90
37204;DHT22;23098;48.054;10.636;2023-02-18T16:51:54;11.20;99.90
37204;DHT22;23098;48.054;10.636;2023-02-18T16:54:19;11.20;99.90
37204;DHT22;23098;48.054;10.636;2023-02-18T16:56:45;11.20;99.90
37204;DHT22;23098;48.054;10.636;2023-02-18T16:59:10;11.10;99.90
37204;DHT22;23098;48.054;10.636;2023-02-18T17:01:40;11.20;99.90
37204;DHT22;23098;48.054;10.636;2023-02-18T17:04:10;11.10;99.90
37204;DHT22;23098;48.054;10.636;2023-02-18T17:06:36;11.10;99.90
37204;DHT22;23098;48.054;10.636;2023-02-18T17:09:15;11.20;99.90
37204;DHT22;23098;48.054;10.636;2023-02-18T17:11:43;11.20;99.90
37204;DHT22;23098;48.054;10.636;2023-02-18T17:14:13;11.20;99.90
37204;DHT22;23098;48.054;10.636;2023-02-18T17:16:39;11.10;99.90
37204;DHT22;23098;48.054;10.636;2023-02-18T17:19:04;11.10;99.90
37204;DHT22;23098;48.054;10.636;2023-02-18T17:21:30;11.00;99.90
37204;DHT22;23098;48.054;10.636;2023-02-18T17:23:55;11.10;99.90
37204;DHT22;23098;48.054;10.636;2023-02-18T17:26:26;11.00;99.90
37204;DHT22;23098;48.054;10.636;2023-02-18T17:28:54;11.00;99.90
37204;DHT22;23098;48.054;10.636;2023-02-18T17:31:23;11.10;99.90
37204;DHT22;23098;48.054;10.636;2023-02-18T17:33:51;11.00;99.90
37204;DHT22;23098;48.054;10.636;2023-02-18T17:36:17;11.00;99.90
37204;DHT22;23098;48.054;10.636;2023-02-18T17:38:43;11.00;99.90